sensor_id;sensor_type;location;lat;lon;timestamp;P1;durP1;ratioP1;P2;durP2;ratioP2
12663;SDS011;6396;58.490;15.528;2022-09-21T00:01:19;5.60;;;2.77;;
12663;SDS011;6396;58.490;15.528;2022-09-21T00:03:50;2.93;;;2.63;;
12663;SDS011;6396;58.490;15.528;2022-09-21T00:06:19;4.33;;;3.00;;
12663;SDS011;6396;58.490;15.528;2022-09-21T00:08:47;4.63;;;2.80;;
12663;SDS011;6396;58.490;15.528;2022-09-21T00:11:17;3.13;;;2.77;;
12663;SDS011;6396;58.490;15.528;2022-09-21T00:13:46;3.43;;;2.80;;
12663;SDS011;6396;58.490;15.528;2022-09-21T00:16:13;2.93;;;2.70;;
12663;SDS011;6396;58.490;15.528;2022-09-21T00:18:41;4.03;;;2.67;;
12663;SDS011;6396;58.490;15.528;2022-09-21T00:21:09;3.37;;;2.60;;
12663;SDS011;6396;58.490;15.528;2022-09-21T00:23:38;5.83;;;2.50;;
12663;SDS011;6396;58.490;15.528;2022-09-21T00:26:06;3.00;;;2.70;;
12663;SDS011;6396;58.490;15.528;2022-09-21T00:28:36;2.60;;;2.23;;
12663;SDS011;6396;58.490;15.528;2022-09-21T00:31:03;3.40;;;2.97;;
12663;SDS011;6396;58.490;15.528;2022-09-21T00:33:31;2.80;;;2.60;;
12663;SDS011;6396;58.490;15.528;2022-09-21T00:36:00;3.43;;;2.60;;
12663;SDS011;6396;58.490;15.528;2022-09-21T00:38:28;3.60;;;2.80;;
12663;SDS011;6396;58.490;15.528;2022-09-21T00:40:55;4.10;;;2.47;;
12663;SDS011;6396;58.490;15.528;2022-09-21T00:43:22;4.23;;;2.50;;
12663;SDS011;6396;58.490;15.528;2022-09-21T00:45:51;3.63;;;2.50;;
12663;SDS011;6396;58.490;15.528;2022-09-21T00:48:24;2.90;;;2.60;;
12663;SDS011;6396;58.490;15.528;2022-09-21T00:50:51;2.93;;;2.20;;
12663;SDS011;6396;58.490;15.528;2022-09-21T00:53:21;3.27;;;2.40;;
12663;SDS011;6396;58.490;15.528;2022-09-21T00:55:49;3.70;;;2.20;;
12663;SDS011;6396;58.490;15.528;2022-09-21T00:58:21;2.80;;;2.43;;
12663;SDS011;6396;58.490;15.528;2022-09-21T01:00:53;2.97;;;2.67;;
12663;SDS011;6396;58.490;15.528;2022-09-21T01:03:22;3.03;;;2.57;;
12663;SDS011;6396;58.490;15.528;2022-09-21T01:05:48;2.23;;;2.03;;
12663;SDS011;6396;58.490;15.528;2022-09-21T01:08:15;3.30;;;2.50;;
12663;SDS011;6396;58.490;15.528;2022-09-21T01:10:54;2.50;;;2.30;;
12663;SDS011;6396;58.490;15.528;2022-09-21T01:13:33;3.77;;;2.23;;
12663;SDS011;6396;58.490;15.528;2022-09-21T01:16:14;5.00;;;2.30;;
12663;SDS011;6396;58.490;15.528;2022-09-21T01:18:45;4.97;;;2.03;;
12663;SDS011;6396;58.490;15.528;2022-09-21T01:21:20;5.63;;;2.77;;
12663;SDS011;6396;58.490;15.528;2022-09-21T01:23:58;2.57;;;2.33;;
12663;SDS011;6396;58.490;15.528;2022-09-21T01:26:55;4.50;;;2.27;;
12663;SDS011;6396;58.490;15.528;2022-09-21T01:29:43;2.63;;;2.20;;
12663;SDS011;6396;58.490;15.528;2022-09-21T01:32:16;3.63;;;2.33;;
12663;SDS011;6396;58.490;15.528;2022-09-21T01:34:49;3.57;;;2.40;;
12663;SDS011;6396;58.490;15.528;2022-09-21T01:37:20;2.60;;;1.90;;
12663;SDS011;6396;58.490;15.528;2022-09-21T01:39:52;2.63;;;2.43;;
12663;SDS011;6396;58.490;15.528;2022-09-21T01:42:22;2.50;;;2.20;;
12663;SDS011;6396;58.490;15.528;2022-09-21T01:44:54;4.03;;;2.90;;
12663;SDS011;6396;58.490;15.528;2022-09-21T01:47:23;2.93;;;2.20;;
12663;SDS011;6396;58.490;15.528;2022-09-21T01:49:51;2.80;;;2.60;;
12663;SDS011;6396;58.490;15.528;2022-09-21T01:52:23;2.57;;;2.27;;
12663;SDS011;6396;58.490;15.528;2022-09-21T01:54:57;2.73;;;2.23;;
12663;SDS011;6396;58.490;15.528;2022-09-21T01:57:30;2.40;;;2.20;;
12663;SDS011;6396;58.490;15.528;2022-09-21T02:00:07;3.00;;;2.20;;
12663;SDS011;6396;58.490;15.528;2022-09-21T02:02:36;2.67;;;2.10;;
12663;SDS011;6396;58.490;15.528;2022-09-21T02:05:10;2.67;;;2.37;;
12663;SDS011;6396;58.490;15.528;2022-09-21T02:07:40;3.80;;;2.60;;
12663;SDS011;6396;58.490;15.528;2022-09-21T02:10:08;4.20;;;2.50;;
12663;SDS011;6396;58.490;15.528;2022-09-21T02:12:41;4.00;;;2.67;;
12663;SDS011;6396;58.490;15.528;2022-09-21T02:15:10;4.30;;;2.27;;
12663;SDS011;6396;58.490;15.528;2022-09-21T02:17:39;4.43;;;2.30;;
12663;SDS011;6396;58.490;15.528;2022-09-21T02:20:17;2.50;;;2.30;;
12663;SDS011;6396;58.490;15.528;2022-09-21T02:22:51;2.60;;;2.40;;
12663;SDS011;6396;58.490;15.528;2022-09-21T02:25:27;4.87;;;2.80;;
12663;SDS011;6396;58.490;15.528;2022-09-21T02:28:03;3.80;;;2.83;;
12663;SDS011;6396;58.490;15.528;2022-09-21T02:30:35;4.70;;;2.60;;
12663;SDS011;6396;58.490;15.528;2022-09-21T02:33:06;3.47;;;2.60;;
12663;SDS011;6396;58.490;15.528;2022-09-21T02:35:41;2.50;;;2.10;;
12663;SDS011;6396;58.490;15.528;2022-09-21T02:38:14;3.30;;;2.40;;
12663;SDS011;6396;58.490;15.528;2022-09-21T02:40:51;4.17;;;2.30;;
12663;SDS011;6396;58.490;15.528;2022-09-21T02:43:22;3.83;;;2.23;;
12663;SDS011;6396;58.490;15.528;2022-09-21T02:45:55;4.13;;;2.30;;
12663;SDS011;6396;58.490;15.528;2022-09-21T02:48:28;4.00;;;2.40;;
12663;SDS011;6396;58.490;15.528;2022-09-21T02:51:02;3.57;;;2.40;;
12663;SDS011;6396;58.490;15.528;2022-09-21T02:53:33;3.17;;;2.37;;
12663;SDS011;6396;58.490;15.528;2022-09-21T02:56:03;2.83;;;2.10;;
12663;SDS011;6396;58.490;15.528;2022-09-21T02:58:33;2.50;;;2.30;;
12663;SDS011;6396;58.490;15.528;2022-09-21T03:01:05;3.57;;;2.30;;
12663;SDS011;6396;58.490;15.528;2022-09-21T03:03:35;4.20;;;2.30;;
12663;SDS011;6396;58.490;15.528;2022-09-21T03:06:02;2.87;;;2.20;;
12663;SDS011;6396;58.490;15.528;2022-09-21T03:08:29;2.87;;;1.70;;
12663;SDS011;6396;58.490;15.528;2022-09-21T03:10:55;2.33;;;2.13;;
12663;SDS011;6396;58.490;15.528;2022-09-21T03:13:23;2.10;;;1.90;;
12663;SDS011;6396;58.490;15.528;2022-09-21T03:15:57;5.03;;;2.07;;
12663;SDS011;6396;58.490;15.528;2022-09-21T03:18:26;2.17;;;1.97;;
12663;SDS011;6396;58.490;15.528;2022-09-21T03:20:53;1.93;;;1.70;;
12663;SDS011;6396;58.490;15.528;2022-09-21T03:23:20;2.93;;;2.00;;
12663;SDS011;6396;58.490;15.528;2022-09-21T03:25:47;1.97;;;1.77;;
12663;SDS011;6396;58.490;15.528;2022-09-21T03:28:16;2.47;;;1.90;;
12663;SDS011;6396;58.490;15.528;2022-09-21T03:30:43;2.97;;;1.80;;
12663;SDS011;6396;58.490;15.528;2022-09-21T03:33:11;1.80;;;1.50;;
12663;SDS011;6396;58.490;15.528;2022-09-21T03:35:39;2.50;;;1.77;;
12663;SDS011;6396;58.490;15.528;2022-09-21T03:38:06;2.60;;;1.77;;
12663;SDS011;6396;58.490;15.528;2022-09-21T03:40:34;1.73;;;1.60;;
12663;SDS011;6396;58.490;15.528;2022-09-21T03:43:01;4.03;;;1.60;;
12663;SDS011;6396;58.490;15.528;2022-09-21T03:45:28;1.67;;;1.57;;
12663;SDS011;6396;58.490;15.528;2022-09-21T03:47:55;4.57;;;2.00;;
12663;SDS011;6396;58.490;15.528;2022-09-21T03:50:23;2.40;;;1.63;;
12663;SDS011;6396;58.490;15.528;2022-09-21T03:52:51;3.10;;;1.77;;
12663;SDS011;6396;58.490;15.528;2022-09-21T03:55:18;2.20;;;1.60;;
12663;SDS011;6396;58.490;15.528;2022-09-21T03:57:45;1.47;;;1.37;;
12663;SDS011;6396;58.490;15.528;2022-09-21T04:00:13;1.70;;;1.60;;
12663;SDS011;6396;58.490;15.528;2022-09-21T04:02:40;3.90;;;1.50;;
12663;SDS011;6396;58.490;15.528;2022-09-21T04:05:08;1.57;;;1.47;;
12663;SDS011;6396;58.490;15.528;2022-09-21T04:07:36;1.90;;;1.37;;
12663;SDS011;6396;58.490;15.528;2022-09-21T04:10:07;3.57;;;1.67;;
12663;SDS011;6396;58.490;15.528;2022-09-21T04:12:37;1.93;;;1.47;;
12663;SDS011;6396;58.490;15.528;2022-09-21T04:15:07;2.23;;;1.70;;
12663;SDS011;6396;58.490;15.528;2022-09-21T04:17:35;1.67;;;1.53;;
12663;SDS011;6396;58.490;15.528;2022-09-21T04:20:02;1.40;;;1.30;;
12663;SDS011;6396;58.490;15.528;2022-09-21T04:22:30;1.47;;;1.37;;
12663;SDS011;6396;58.490;15.528;2022-09-21T04:24:57;1.30;;;1.20;;
12663;SDS011;6396;58.490;15.528;2022-09-21T04:27:26;2.37;;;1.30;;
12663;SDS011;6396;58.490;15.528;2022-09-21T04:29:53;2.03;;;1.30;;
12663;SDS011;6396;58.490;15.528;2022-09-21T04:32:20;2.30;;;1.43;;
12663;SDS011;6396;58.490;15.528;2022-09-21T04:34:47;2.40;;;1.50;;
12663;SDS011;6396;58.490;15.528;2022-09-21T04:37:14;1.53;;;1.40;;
12663;SDS011;6396;58.490;15.528;2022-09-21T04:39:42;1.83;;;1.50;;
12663;SDS011;6396;58.490;15.528;2022-09-21T04:42:09;1.60;;;1.50;;
12663;SDS011;6396;58.490;15.528;2022-09-21T04:44:38;1.57;;;1.40;;
12663;SDS011;6396;58.490;15.528;2022-09-21T04:47:05;1.40;;;1.30;;
12663;SDS011;6396;58.490;15.528;2022-09-21T04:49:32;2.70;;;1.30;;
12663;SDS011;6396;58.490;15.528;2022-09-21T04:51:59;1.40;;;1.30;;
12663;SDS011;6396;58.490;15.528;2022-09-21T04:54:27;1.77;;;1.30;;
12663;SDS011;6396;58.490;15.528;2022-09-21T04:56:53;1.77;;;1.30;;
12663;SDS011;6396;58.490;15.528;2022-09-21T04:59:21;1.30;;;1.20;;
12663;SDS011;6396;58.490;15.528;2022-09-21T05:01:49;1.73;;;1.40;;
12663;SDS011;6396;58.490;15.528;2022-09-21T05:04:16;2.27;;;1.50;;
12663;SDS011;6396;58.490;15.528;2022-09-21T05:06:43;1.63;;;1.53;;
12663;SDS011;6396;58.490;15.528;2022-09-21T05:09:09;1.50;;;1.33;;
12663;SDS011;6396;58.490;15.528;2022-09-21T05:11:53;2.27;;;1.50;;
12663;SDS011;6396;58.490;15.528;2022-09-21T05:14:20;1.77;;;1.67;;
12663;SDS011;6396;58.490;15.528;2022-09-21T05:16:48;1.53;;;1.30;;
12663;SDS011;6396;58.490;15.528;2022-09-21T05:19:15;1.50;;;1.30;;
12663;SDS011;6396;58.490;15.528;2022-09-21T05:21:42;1.43;;;1.30;;
12663;SDS011;6396;58.490;15.528;2022-09-21T05:24:09;2.17;;;1.27;;
12663;SDS011;6396;58.490;15.528;2022-09-21T05:26:36;2.30;;;1.57;;
12663;SDS011;6396;58.490;15.528;2022-09-21T05:29:03;1.50;;;1.40;;
12663;SDS011;6396;58.490;15.528;2022-09-21T05:31:36;3.37;;;1.43;;
12663;SDS011;6396;58.490;15.528;2022-09-21T05:34:14;3.00;;;1.47;;
12663;SDS011;6396;58.490;15.528;2022-09-21T05:37:01;1.60;;;1.30;;
12663;SDS011;6396;58.490;15.528;2022-09-21T05:40:03;1.63;;;1.53;;
12663;SDS011;6396;58.490;15.528;2022-09-21T05:42:31;2.77;;;1.50;;
12663;SDS011;6396;58.490;15.528;2022-09-21T05:44:59;3.30;;;1.17;;
12663;SDS011;6396;58.490;15.528;2022-09-21T05:47:30;2.27;;;1.37;;
12663;SDS011;6396;58.490;15.528;2022-09-21T05:50:12;1.80;;;1.57;;
12663;SDS011;6396;58.490;15.528;2022-09-21T05:52:52;2.73;;;1.30;;
12663;SDS011;6396;58.490;15.528;2022-09-21T05:55:31;2.27;;;1.70;;
12663;SDS011;6396;58.490;15.528;2022-09-21T05:58:05;2.50;;;1.50;;
12663;SDS011;6396;58.490;15.528;2022-09-21T06:00:45;1.53;;;1.43;;
12663;SDS011;6396;58.490;15.528;2022-09-21T06:03:25;1.30;;;1.20;;
12663;SDS011;6396;58.490;15.528;2022-09-21T06:05:55;1.93;;;1.60;;
12663;SDS011;6396;58.490;15.528;2022-09-21T06:08:22;2.30;;;1.63;;
12663;SDS011;6396;58.490;15.528;2022-09-21T06:10:49;3.30;;;1.30;;
12663;SDS011;6396;58.490;15.528;2022-09-21T06:13:16;3.10;;;1.43;;
12663;SDS011;6396;58.490;15.528;2022-09-21T06:15:43;2.17;;;1.27;;
12663;SDS011;6396;58.490;15.528;2022-09-21T06:18:10;4.13;;;1.40;;
12663;SDS011;6396;58.490;15.528;2022-09-21T06:20:37;1.60;;;1.23;;
12663;SDS011;6396;58.490;15.528;2022-09-21T06:23:06;1.43;;;1.30;;
12663;SDS011;6396;58.490;15.528;2022-09-21T06:25:34;2.20;;;1.50;;
12663;SDS011;6396;58.490;15.528;2022-09-21T06:28:02;1.30;;;1.10;;
12663;SDS011;6396;58.490;15.528;2022-09-21T06:30:29;1.93;;;1.30;;
12663;SDS011;6396;58.490;15.528;2022-09-21T06:32:58;2.27;;;1.60;;
12663;SDS011;6396;58.490;15.528;2022-09-21T06:35:26;2.60;;;1.20;;
12663;SDS011;6396;58.490;15.528;2022-09-21T06:37:56;3.40;;;1.50;;
12663;SDS011;6396;58.490;15.528;2022-09-21T06:40:25;1.50;;;1.30;;
12663;SDS011;6396;58.490;15.528;2022-09-21T06:42:54;1.70;;;1.20;;
12663;SDS011;6396;58.490;15.528;2022-09-21T06:45:22;1.90;;;1.20;;
12663;SDS011;6396;58.490;15.528;2022-09-21T06:47:49;1.97;;;1.30;;
12663;SDS011;6396;58.490;15.528;2022-09-21T06:50:15;3.47;;;1.30;;
12663;SDS011;6396;58.490;15.528;2022-09-21T06:52:42;1.93;;;1.40;;
12663;SDS011;6396;58.490;15.528;2022-09-21T06:55:09;1.83;;;1.47;;
12663;SDS011;6396;58.490;15.528;2022-09-21T06:57:37;2.40;;;1.40;;
12663;SDS011;6396;58.490;15.528;2022-09-21T07:00:06;2.93;;;1.40;;
12663;SDS011;6396;58.490;15.528;2022-09-21T07:02:35;2.77;;;1.47;;
12663;SDS011;6396;58.490;15.528;2022-09-21T07:05:02;2.20;;;1.50;;
12663;SDS011;6396;58.490;15.528;2022-09-21T07:07:29;3.23;;;1.40;;
12663;SDS011;6396;58.490;15.528;2022-09-21T07:09:56;2.80;;;1.50;;
12663;SDS011;6396;58.490;15.528;2022-09-21T07:12:25;1.53;;;1.23;;
12663;SDS011;6396;58.490;15.528;2022-09-21T07:14:54;2.50;;;1.50;;
12663;SDS011;6396;58.490;15.528;2022-09-21T07:17:21;1.47;;;1.30;;
12663;SDS011;6396;58.490;15.528;2022-09-21T07:19:48;2.10;;;1.33;;
12663;SDS011;6396;58.490;15.528;2022-09-21T07:22:15;1.70;;;1.20;;
12663;SDS011;6396;58.490;15.528;2022-09-21T07:24:41;1.30;;;1.10;;
12663;SDS011;6396;58.490;15.528;2022-09-21T07:27:08;1.63;;;1.50;;
12663;SDS011;6396;58.490;15.528;2022-09-21T07:29:35;1.57;;;1.30;;
12663;SDS011;6396;58.490;15.528;2022-09-21T07:32:03;2.17;;;1.40;;
12663;SDS011;6396;58.490;15.528;2022-09-21T07:34:33;5.03;;;1.50;;
12663;SDS011;6396;58.490;15.528;2022-09-21T07:37:00;1.80;;;1.30;;
12663;SDS011;6396;58.490;15.528;2022-09-21T07:39:27;2.80;;;1.57;;
12663;SDS011;6396;58.490;15.528;2022-09-21T07:41:54;1.97;;;1.33;;
12663;SDS011;6396;58.490;15.528;2022-09-21T07:44:22;2.60;;;1.40;;
12663;SDS011;6396;58.490;15.528;2022-09-21T07:46:49;1.90;;;1.57;;
12663;SDS011;6396;58.490;15.528;2022-09-21T07:49:17;3.73;;;1.87;;
12663;SDS011;6396;58.490;15.528;2022-09-21T07:51:44;2.83;;;1.80;;
12663;SDS011;6396;58.490;15.528;2022-09-21T07:54:11;2.10;;;1.90;;
12663;SDS011;6396;58.490;15.528;2022-09-21T07:56:40;3.17;;;1.73;;
12663;SDS011;6396;58.490;15.528;2022-09-21T07:59:27;3.90;;;1.97;;
12663;SDS011;6396;58.490;15.528;2022-09-21T08:01:55;5.17;;;1.90;;
12663;SDS011;6396;58.490;15.528;2022-09-21T08:04:23;5.77;;;3.20;;
12663;SDS011;6396;58.490;15.528;2022-09-21T08:06:50;5.13;;;2.90;;
12663;SDS011;6396;58.490;15.528;2022-09-21T08:09:16;4.53;;;3.40;;
12663;SDS011;6396;58.490;15.528;2022-09-21T08:11:43;5.10;;;3.63;;
12663;SDS011;6396;58.490;15.528;2022-09-21T08:14:11;7.20;;;4.27;;
12663;SDS011;6396;58.490;15.528;2022-09-21T08:16:43;8.40;;;4.10;;
12663;SDS011;6396;58.490;15.528;2022-09-21T08:19:11;8.17;;;5.03;;
12663;SDS011;6396;58.490;15.528;2022-09-21T08:21:39;5.20;;;2.90;;
12663;SDS011;6396;58.490;15.528;2022-09-21T08:24:06;5.37;;;2.80;;
12663;SDS011;6396;58.490;15.528;2022-09-21T08:26:33;4.83;;;2.37;;
12663;SDS011;6396;58.490;15.528;2022-09-21T08:29:00;3.17;;;2.50;;
12663;SDS011;6396;58.490;15.528;2022-09-21T08:31:27;4.10;;;2.40;;
12663;SDS011;6396;58.490;15.528;2022-09-21T08:33:54;2.40;;;2.20;;
12663;SDS011;6396;58.490;15.528;2022-09-21T08:36:22;3.20;;;2.00;;
12663;SDS011;6396;58.490;15.528;2022-09-21T08:38:51;3.27;;;2.33;;
12663;SDS011;6396;58.490;15.528;2022-09-21T08:41:19;2.47;;;2.20;;
12663;SDS011;6396;58.490;15.528;2022-09-21T08:43:50;2.47;;;1.97;;
12663;SDS011;6396;58.490;15.528;2022-09-21T08:46:20;2.13;;;1.83;;
12663;SDS011;6396;58.490;15.528;2022-09-21T08:48:49;2.93;;;1.80;;
12663;SDS011;6396;58.490;15.528;2022-09-21T08:51:23;2.03;;;1.83;;
12663;SDS011;6396;58.490;15.528;2022-09-21T08:53:54;2.23;;;1.80;;
12663;SDS011;6396;58.490;15.528;2022-09-21T08:56:26;4.20;;;2.10;;
12663;SDS011;6396;58.490;15.528;2022-09-21T08:58:53;2.30;;;1.87;;
12663;SDS011;6396;58.490;15.528;2022-09-21T09:01:25;4.93;;;1.90;;
12663;SDS011;6396;58.490;15.528;2022-09-21T09:04:03;2.43;;;1.60;;
12663;SDS011;6396;58.490;15.528;2022-09-21T09:06:46;1.90;;;1.70;;
12663;SDS011;6396;58.490;15.528;2022-09-21T09:12:15;2.00;;;1.50;;
12663;SDS011;6396;58.490;15.528;2022-09-21T09:14:55;2.37;;;1.90;;
12663;SDS011;6396;58.490;15.528;2022-09-21T09:17:36;3.90;;;1.70;;
12663;SDS011;6396;58.490;15.528;2022-09-21T09:20:12;2.67;;;1.70;;
12663;SDS011;6396;58.490;15.528;2022-09-21T09:22:42;3.97;;;2.13;;
12663;SDS011;6396;58.490;15.528;2022-09-21T09:25:16;1.50;;;1.40;;
12663;SDS011;6396;58.490;15.528;2022-09-21T09:27:46;2.77;;;1.77;;
12663;SDS011;6396;58.490;15.528;2022-09-21T09:30:16;3.07;;;1.90;;
12663;SDS011;6396;58.490;15.528;2022-09-21T09:32:46;1.40;;;1.30;;
12663;SDS011;6396;58.490;15.528;2022-09-21T09:35:21;2.10;;;1.30;;
12663;SDS011;6396;58.490;15.528;2022-09-21T09:37:52;2.13;;;1.40;;
12663;SDS011;6396;58.490;15.528;2022-09-21T09:40:28;1.97;;;1.13;;
12663;SDS011;6396;58.490;15.528;2022-09-21T09:43:14;1.73;;;0.97;;
12663;SDS011;6396;58.490;15.528;2022-09-21T09:45:52;1.33;;;1.13;;
12663;SDS011;6396;58.490;15.528;2022-09-21T09:48:34;2.10;;;1.27;;
12663;SDS011;6396;58.490;15.528;2022-09-21T09:51:08;1.07;;;1.00;;
12663;SDS011;6396;58.490;15.528;2022-09-21T09:53:37;1.10;;;1.00;;
12663;SDS011;6396;58.490;15.528;2022-09-21T09:56:07;1.90;;;1.20;;
12663;SDS011;6396;58.490;15.528;2022-09-21T09:58:36;1.73;;;1.20;;
12663;SDS011;6396;58.490;15.528;2022-09-21T10:01:09;3.00;;;1.10;;
12663;SDS011;6396;58.490;15.528;2022-09-21T10:04:03;1.20;;;1.10;;
12663;SDS011;6396;58.490;15.528;2022-09-21T10:06:31;1.33;;;1.10;;
12663;SDS011;6396;58.490;15.528;2022-09-21T10:08:58;1.60;;;1.20;;
12663;SDS011;6396;58.490;15.528;2022-09-21T10:11:34;2.70;;;1.17;;
12663;SDS011;6396;58.490;15.528;2022-09-21T10:14:06;1.10;;;1.00;;
12663;SDS011;6396;58.490;15.528;2022-09-21T10:16:38;1.27;;;0.80;;
12663;SDS011;6396;58.490;15.528;2022-09-21T10:19:10;2.50;;;1.03;;
12663;SDS011;6396;58.490;15.528;2022-09-21T10:21:42;2.50;;;1.60;;
12663;SDS011;6396;58.490;15.528;2022-09-21T10:24:15;1.57;;;1.40;;
12663;SDS011;6396;58.490;15.528;2022-09-21T10:26:49;1.97;;;1.27;;
12663;SDS011;6396;58.490;15.528;2022-09-21T10:29:27;1.67;;;1.50;;
12663;SDS011;6396;58.490;15.528;2022-09-21T10:31:57;2.70;;;1.30;;
12663;SDS011;6396;58.490;15.528;2022-09-21T10:34:26;1.33;;;1.20;;
12663;SDS011;6396;58.490;15.528;2022-09-21T10:36:55;2.30;;;1.27;;
12663;SDS011;6396;58.490;15.528;2022-09-21T10:39:24;1.47;;;1.00;;
12663;SDS011;6396;58.490;15.528;2022-09-21T10:41:57;1.23;;;1.13;;
12663;SDS011;6396;58.490;15.528;2022-09-21T10:44:37;1.20;;;1.10;;
12663;SDS011;6396;58.490;15.528;2022-09-21T10:47:16;1.30;;;1.20;;
12663;SDS011;6396;58.490;15.528;2022-09-21T10:49:45;2.00;;;1.20;;
12663;SDS011;6396;58.490;15.528;2022-09-21T10:52:15;1.60;;;1.50;;
12663;SDS011;6396;58.490;15.528;2022-09-21T10:54:44;1.30;;;1.20;;
12663;SDS011;6396;58.490;15.528;2022-09-21T10:57:18;2.70;;;1.10;;
12663;SDS011;6396;58.490;15.528;2022-09-21T10:59:47;1.70;;;1.07;;
12663;SDS011;6396;58.490;15.528;2022-09-21T11:02:24;1.47;;;1.00;;
12663;SDS011;6396;58.490;15.528;2022-09-21T11:05:05;1.10;;;1.10;;
12663;SDS011;6396;58.490;15.528;2022-09-21T11:07:41;1.83;;;0.90;;
12663;SDS011;6396;58.490;15.528;2022-09-21T11:10:15;1.00;;;0.97;;
12663;SDS011;6396;58.490;15.528;2022-09-21T11:12:51;1.57;;;0.90;;
12663;SDS011;6396;58.490;15.528;2022-09-21T11:15:33;2.30;;;1.00;;
12663;SDS011;6396;58.490;15.528;2022-09-21T11:18:11;0.80;;;0.80;;
12663;SDS011;6396;58.490;15.528;2022-09-21T11:20:45;0.90;;;0.90;;
12663;SDS011;6396;58.490;15.528;2022-09-21T11:23:20;1.60;;;0.90;;
12663;SDS011;6396;58.490;15.528;2022-09-21T11:25:59;1.17;;;1.00;;
12663;SDS011;6396;58.490;15.528;2022-09-21T11:28:36;1.43;;;0.90;;
12663;SDS011;6396;58.490;15.528;2022-09-21T11:34:07;2.73;;;1.10;;
12663;SDS011;6396;58.490;15.528;2022-09-21T11:36:48;1.30;;;0.80;;
12663;SDS011;6396;58.490;15.528;2022-09-21T11:39:24;1.40;;;1.30;;
12663;SDS011;6396;58.490;15.528;2022-09-21T11:42:02;1.03;;;1.00;;
12663;SDS011;6396;58.490;15.528;2022-09-21T11:44:50;0.70;;;0.70;;
12663;SDS011;6396;58.490;15.528;2022-09-21T11:47:30;1.10;;;1.00;;
12663;SDS011;6396;58.490;15.528;2022-09-21T11:50:19;1.33;;;0.90;;
12663;SDS011;6396;58.490;15.528;2022-09-21T11:56:08;2.97;;;1.70;;
12663;SDS011;6396;58.490;15.528;2022-09-21T11:58:56;1.37;;;0.90;;
12663;SDS011;6396;58.490;15.528;2022-09-21T12:01:38;1.23;;;0.70;;
12663;SDS011;6396;58.490;15.528;2022-09-21T12:04:27;1.50;;;1.00;;
12663;SDS011;6396;58.490;15.528;2022-09-21T12:07:06;0.80;;;0.80;;
12663;SDS011;6396;58.490;15.528;2022-09-21T12:09:50;0.70;;;0.70;;
12663;SDS011;6396;58.490;15.528;2022-09-21T12:12:28;0.67;;;0.67;;
12663;SDS011;6396;58.490;15.528;2022-09-21T12:15:02;1.13;;;0.80;;
12663;SDS011;6396;58.490;15.528;2022-09-21T12:17:40;1.83;;;0.80;;
12663;SDS011;6396;58.490;15.528;2022-09-21T12:20:15;0.63;;;0.63;;
12663;SDS011;6396;58.490;15.528;2022-09-21T12:22:46;0.70;;;0.70;;
12663;SDS011;6396;58.490;15.528;2022-09-21T12:25:17;0.80;;;0.80;;
12663;SDS011;6396;58.490;15.528;2022-09-21T12:27:48;0.70;;;0.70;;
12663;SDS011;6396;58.490;15.528;2022-09-21T12:30:18;1.20;;;0.70;;
12663;SDS011;6396;58.490;15.528;2022-09-21T12:32:50;0.87;;;0.80;;
12663;SDS011;6396;58.490;15.528;2022-09-21T12:35:23;0.97;;;0.80;;
12663;SDS011;6396;58.490;15.528;2022-09-21T12:37:55;1.33;;;0.70;;
12663;SDS011;6396;58.490;15.528;2022-09-21T12:40:27;1.30;;;1.00;;
12663;SDS011;6396;58.490;15.528;2022-09-21T12:43:02;0.87;;;0.80;;
12663;SDS011;6396;58.490;15.528;2022-09-21T12:45:37;0.80;;;0.80;;
12663;SDS011;6396;58.490;15.528;2022-09-21T12:48:10;1.20;;;0.80;;
12663;SDS011;6396;58.490;15.528;2022-09-21T12:50:56;0.80;;;0.80;;
12663;SDS011;6396;58.490;15.528;2022-09-21T12:53:30;0.70;;;0.70;;
12663;SDS011;6396;58.490;15.528;2022-09-21T12:56:00;0.80;;;0.80;;
12663;SDS011;6396;58.490;15.528;2022-09-21T12:58:40;0.70;;;0.70;;
12663;SDS011;6396;58.490;15.528;2022-09-21T13:01:18;0.80;;;0.80;;
12663;SDS011;6396;58.490;15.528;2022-09-21T13:03:56;0.93;;;0.90;;
12663;SDS011;6396;58.490;15.528;2022-09-21T13:06:39;1.40;;;0.90;;
12663;SDS011;6396;58.490;15.528;2022-09-21T13:09:24;1.20;;;0.90;;
12663;SDS011;6396;58.490;15.528;2022-09-21T13:11:53;0.93;;;0.80;;
12663;SDS011;6396;58.490;15.528;2022-09-21T13:14:21;0.97;;;0.83;;
12663;SDS011;6396;58.490;15.528;2022-09-21T13:16:54;1.17;;;0.80;;
12663;SDS011;6396;58.490;15.528;2022-09-21T13:19:27;0.77;;;0.77;;
12663;SDS011;6396;58.490;15.528;2022-09-21T13:22:09;0.80;;;0.80;;
12663;SDS011;6396;58.490;15.528;2022-09-21T13:24:40;0.80;;;0.80;;
12663;SDS011;6396;58.490;15.528;2022-09-21T13:27:09;0.70;;;0.70;;
12663;SDS011;6396;58.490;15.528;2022-09-21T13:29:37;1.50;;;1.00;;
12663;SDS011;6396;58.490;15.528;2022-09-21T13:34:50;1.53;;;0.70;;
12663;SDS011;6396;58.490;15.528;2022-09-21T13:37:27;0.70;;;0.70;;
12663;SDS011;6396;58.490;15.528;2022-09-21T13:43:14;0.80;;;0.80;;
12663;SDS011;6396;58.490;15.528;2022-09-21T13:45:49;0.90;;;0.90;;
12663;SDS011;6396;58.490;15.528;2022-09-21T13:48:26;0.70;;;0.70;;
12663;SDS011;6396;58.490;15.528;2022-09-21T13:50:59;0.93;;;0.93;;
12663;SDS011;6396;58.490;15.528;2022-09-21T13:53:33;0.80;;;0.80;;
12663;SDS011;6396;58.490;15.528;2022-09-21T13:56:09;0.60;;;0.60;;
12663;SDS011;6396;58.490;15.528;2022-09-21T13:58:45;0.80;;;0.70;;
12663;SDS011;6396;58.490;15.528;2022-09-21T14:01:15;0.80;;;0.80;;
12663;SDS011;6396;58.490;15.528;2022-09-21T14:03:46;1.00;;;0.80;;
12663;SDS011;6396;58.490;15.528;2022-09-21T14:06:17;0.90;;;0.80;;
12663;SDS011;6396;58.490;15.528;2022-09-21T14:08:49;0.73;;;0.70;;
12663;SDS011;6396;58.490;15.528;2022-09-21T14:11:21;0.70;;;0.70;;
12663;SDS011;6396;58.490;15.528;2022-09-21T14:14:11;0.97;;;0.80;;
12663;SDS011;6396;58.490;15.528;2022-09-21T14:16:56;1.03;;;0.70;;
12663;SDS011;6396;58.490;15.528;2022-09-21T14:22:38;0.60;;;0.60;;
12663;SDS011;6396;58.490;15.528;2022-09-21T14:25:21;1.33;;;0.63;;
12663;SDS011;6396;58.490;15.528;2022-09-21T14:27:59;0.83;;;0.70;;
12663;SDS011;6396;58.490;15.528;2022-09-21T14:30:32;1.07;;;0.80;;
12663;SDS011;6396;58.490;15.528;2022-09-21T14:35:52;0.80;;;0.80;;
12663;SDS011;6396;58.490;15.528;2022-09-21T14:38:23;0.97;;;0.80;;
12663;SDS011;6396;58.490;15.528;2022-09-21T14:40:54;1.80;;;0.80;;
12663;SDS011;6396;58.490;15.528;2022-09-21T14:43:25;1.23;;;0.70;;
12663;SDS011;6396;58.490;15.528;2022-09-21T14:46:15;0.80;;;0.80;;
12663;SDS011;6396;58.490;15.528;2022-09-21T14:49:08;0.70;;;0.70;;
12663;SDS011;6396;58.490;15.528;2022-09-21T14:51:48;2.93;;;0.70;;
12663;SDS011;6396;58.490;15.528;2022-09-21T14:57:17;0.80;;;0.80;;
12663;SDS011;6396;58.490;15.528;2022-09-21T15:00:11;0.87;;;0.70;;
12663;SDS011;6396;58.490;15.528;2022-09-21T15:02:45;0.93;;;0.70;;
12663;SDS011;6396;58.490;15.528;2022-09-21T15:05:18;1.47;;;0.80;;
12663;SDS011;6396;58.490;15.528;2022-09-21T15:07:52;0.70;;;0.70;;
12663;SDS011;6396;58.490;15.528;2022-09-21T15:10:47;0.60;;;0.60;;
12663;SDS011;6396;58.490;15.528;2022-09-21T15:16:33;0.80;;;0.80;;
12663;SDS011;6396;58.490;15.528;2022-09-21T15:19:10;0.60;;;0.60;;
12663;SDS011;6396;58.490;15.528;2022-09-21T15:21:40;1.13;;;0.80;;
12663;SDS011;6396;58.490;15.528;2022-09-21T15:24:16;0.80;;;0.80;;
12663;SDS011;6396;58.490;15.528;2022-09-21T15:26:46;0.60;;;0.60;;
12663;SDS011;6396;58.490;15.528;2022-09-21T15:29:19;0.70;;;0.70;;
12663;SDS011;6396;58.490;15.528;2022-09-21T15:31:50;0.63;;;0.60;;
12663;SDS011;6396;58.490;15.528;2022-09-21T15:34:18;0.67;;;0.67;;
12663;SDS011;6396;58.490;15.528;2022-09-21T15:36:45;1.27;;;0.70;;
12663;SDS011;6396;58.490;15.528;2022-09-21T15:39:26;0.70;;;0.70;;
12663;SDS011;6396;58.490;15.528;2022-09-21T15:42:01;1.07;;;0.80;;
12663;SDS011;6396;58.490;15.528;2022-09-21T15:44:42;0.80;;;0.80;;